Time;durP1;ratioP1;P1;durP2;ratioP2;P2;SDS_P1;SDS_P2;PMS_P1;PMS_P2;Temp;Humidity;BMP_temperature;BMP_pressure;BME280_temperature;BME280_humidity;BME280_pressure;Samples;Min_cycle;Max_cycle;Signal;HPM_P1;HPM_P2
2023/01/08 00:02:09;;;;;;;7.43;6.97;;;10.00;99.90;;;;;;5064769;28;20760;-73
2023/01/08 00:04:36;;;;;;;8.50;8.00;;;10.00;99.90;;;;;;5063185;28;20636;-72
2023/01/08 00:07:03;;;;;;;7.50;7.07;;;10.00;99.90;;;;;;5057632;28;20855;-72
2023/01/08 00:09:31;;;;;;;8.30;7.60;;;9.90;99.90;;;;;;5057717;28;20828;-69
2023/01/08 00:11:58;;;;;;;8.00;7.50;;;9.90;99.90;;;;;;5061343;28;20463;-72
2023/01/08 00:14:25;;;;;;;7.77;7.33;;;9.80;99.90;;;;;;5058368;28;20458;-72
2023/01/08 00:16:53;;;;;;;8.90;8.40;;;9.80;99.90;;;;;;5058894;28;20522;-73
2023/01/08 00:19:19;;;;;;;8.40;7.80;;;9.90;99.90;;;;;;5058054;28;20560;-70
2023/01/08 00:21:46;;;;;;;9.40;8.70;;;9.80;99.90;;;;;;5061505;28;20636;-71
2023/01/08 00:24:13;;;;;;;7.60;7.23;;;9.90;99.90;;;;;;5062215;28;20479;-73
2023/01/08 00:26:41;;;;;;;7.67;7.17;;;10.00;99.90;;;;;;5057277;28;20854;-72
2023/01/08 00:29:08;;;;;;;8.03;7.50;;;10.00;99.90;;;;;;5058239;28;20942;-72
2023/01/08 00:31:35;;;;;;;13.80;12.37;;;10.10;99.90;;;;;;5068224;28;20519;-70
2023/01/08 00:34:01;;;;;;;8.60;8.00;;;10.10;99.90;;;;;;5061981;28;20522;-69
2023/01/08 00:36:28;;;;;;;8.50;8.00;;;10.20;99.90;;;;;;5061717;28;20486;-70
2023/01/08 00:38:55;;;;;;;8.67;8.13;;;10.30;99.90;;;;;;5064404;28;20478;-69
2023/01/08 00:41:22;;;;;;;9.10;8.53;;;10.30;99.90;;;;;;5067111;28;20564;-70
2023/01/08 00:43:50;;;;;;;8.60;8.10;;;10.30;99.90;;;;;;5067338;28;20972;-70
2023/01/08 00:46:17;;;;;;;9.60;9.00;;;10.40;99.90;;;;;;5065267;28;20888;-69
2023/01/08 00:48:44;;;;;;;9.07;8.33;;;10.40;99.90;;;;;;5064065;28;20469;-72
2023/01/08 00:51:13;;;;;;;9.00;8.30;;;10.40;99.90;;;;;;5062980;28;20471;-70
2023/01/08 00:53:40;;;;;;;8.30;7.87;;;10.40;99.90;;;;;;5065715;28;20512;-70
2023/01/08 00:56:09;;;;;;;8.63;8.13;;;10.40;99.90;;;;;;5065614;28;20482;-71
2023/01/08 00:58:36;;;;;;;9.10;8.60;;;10.40;99.90;;;;;;5072966;28;20471;-73
2023/01/08 01:01:09;;;;;;;9.33;8.43;;;10.40;99.90;;;;;;5065500;28;20465;-69
2023/01/08 01:03:36;;;;;;;8.90;8.13;;;10.50;99.90;;;;;;5065255;28;20463;-72
2023/01/08 01:06:04;;;;;;;9.63;8.70;;;10.50;99.90;;;;;;5053164;28;20475;-70
2023/01/08 01:08:31;;;;;;;9.70;8.93;;;10.50;99.90;;;;;;5061949;28;20544;-70
2023/01/08 01:10:58;;;;;;;9.40;8.60;;;10.60;99.90;;;;;;5059437;28;20461;-70
2023/01/08 01:13:25;;;;;;;9.20;8.30;;;10.50;99.90;;;;;;5069219;28;21133;-70
2023/01/08 01:15:58;;;;;;;9.50;8.90;;;10.50;99.90;;;;;;5064542;28;20462;-70
2023/01/08 01:18:27;;;;;;;9.93;9.33;;;10.50;99.90;;;;;;5060335;28;20548;-69
2023/01/08 01:20:54;;;;;;;9.40;8.70;;;10.60;99.90;;;;;;5056714;28;20450;-72
2023/01/08 01:23:21;;;;;;;9.47;8.87;;;10.60;99.90;;;;;;5065165;28;20473;-69
2023/01/08 01:25:48;;;;;;;9.83;9.03;;;10.70;99.90;;;;;;5064053;28;21009;-70
2023/01/08 01:28:15;;;;;;;9.63;8.93;;;10.70;99.90;;;;;;5067327;28;20500;-70
2023/01/08 01:30:42;;;;;;;9.27;8.83;;;10.70;99.90;;;;;;5065160;28;20482;-70
2023/01/08 01:33:09;;;;;;;9.30;8.43;;;10.80;99.90;;;;;;5062245;28;20458;-73
2023/01/08 01:35:37;;;;;;;8.30;7.80;;;10.80;99.90;;;;;;5062952;28;20480;-70
2023/01/08 01:38:03;;;;;;;9.40;8.60;;;10.80;99.90;;;;;;5070681;28;20498;-69
2023/01/08 01:40:31;;;;;;;10.10;9.20;;;10.70;99.90;;;;;;5063455;28;20486;-70
2023/01/08 01:42:57;;;;;;;9.60;9.10;;;10.80;99.90;;;;;;5061423;28;20512;-70
2023/01/08 01:45:27;;;;;;;9.47;8.93;;;10.70;99.90;;;;;;5064849;28;20514;-70
2023/01/08 01:47:58;;;;;;;9.60;8.90;;;10.70;99.90;;;;;;5069243;28;20545;-72
2023/01/08 01:50:29;;;;;;;9.60;8.70;;;10.70;99.90;;;;;;5065949;28;20864;-72
2023/01/08 01:53:01;;;;;;;9.07;8.50;;;10.70;99.90;;;;;;5071876;28;20562;-70
2023/01/08 01:55:29;;;;;;;8.90;8.40;;;10.70;99.90;;;;;;5068687;28;20459;-70
2023/01/08 01:58:03;;;;;;;9.27;8.57;;;10.70;99.90;;;;;;5074288;28;20854;-71
2023/01/08 02:00:32;;;;;;;9.00;8.33;;;10.70;99.90;;;;;;5070089;28;20509;-73
2023/01/08 02:02:59;;;;;;;10.30;9.60;;;10.70;99.90;;;;;;5071037;28;20478;-71
2023/01/08 02:05:33;;;;;;;9.77;9.20;;;10.60;99.90;;;;;;5063589;28;20490;-70
2023/01/08 02:08:06;;;;;;;9.93;9.43;;;10.60;99.90;;;;;;5064681;28;20475;-70
2023/01/08 02:10:39;;;;;;;10.67;10.00;;;10.60;99.90;;;;;;5065470;28;20446;-69
2023/01/08 02:13:13;;;;;;;11.20;9.93;;;10.60;99.90;;;;;;5060704;28;20944;-72
2023/01/08 02:15:47;;;;;;;11.70;10.57;;;10.60;99.90;;;;;;5059251;28;20809;-73
2023/01/08 02:18:19;;;;;;;10.30;9.30;;;10.50;99.90;;;;;;5069453;28;20486;-70
2023/01/08 02:20:51;;;;;;;13.03;10.27;;;10.50;99.90;;;;;;5071942;28;20457;-73
2023/01/08 02:23:29;;;;;;;11.30;10.70;;;10.50;99.90;;;;;;5070143;28;20470;-70
2023/01/08 02:26:13;;;;;;;11.13;10.33;;;10.50;99.90;;;;;;5061262;28;20482;-69
2023/01/08 02:28:43;;;;;;;9.97;9.27;;;10.60;99.90;;;;;;5064742;28;20462;-70
2023/01/08 02:31:12;;;;;;;10.60;10.10;;;10.50;99.90;;;;;;5062818;28;20482;-70
2023/01/08 02:33:39;;;;;;;10.90;10.10;;;10.50;99.90;;;;;;5066741;28;20837;-71
2023/01/08 02:36:26;;;;;;;10.60;10.10;;;10.50;99.90;;;;;;5064167;28;20468;-71
2023/01/08 02:39:06;;;;;;;10.90;10.30;;;10.60;99.90;;;;;;5063664;28;20900;-70
2023/01/08 02:41:46;;;;;;;10.20;9.70;;;10.50;99.90;;;;;;5064693;28;20624;-69
2023/01/08 02:44:18;;;;;;;9.77;9.17;;;10.50;99.90;;;;;;5062613;28;21105;-70
2023/01/08 02:46:45;;;;;;;10.07;9.30;;;10.50;99.90;;;;;;5060266;28;20466;-70
2023/01/08 02:49:15;;;;;;;10.83;10.03;;;10.40;99.90;;;;;;5070677;28;20462;-70
2023/01/08 02:51:48;;;;;;;9.60;9.20;;;10.40;99.90;;;;;;5066693;28;20493;-70
2023/01/08 02:54:19;;;;;;;9.57;8.97;;;10.40;99.90;;;;;;5071918;28;20556;-72
2023/01/08 02:56:52;;;;;;;9.73;9.23;;;10.50;99.90;;;;;;5065894;28;20484;-70
2023/01/08 02:59:21;;;;;;;9.80;9.30;;;10.60;99.90;;;;;;5063216;28;20470;-69
2023/01/08 03:01:48;;;;;;;9.50;9.00;;;10.50;99.90;;;;;;5059826;28;21035;-71
2023/01/08 03:04:18;;;;;;;9.87;9.27;;;10.50;99.90;;;;;;5068355;28;20848;-73
2023/01/08 03:06:46;;;;;;;9.40;8.90;;;10.50;99.90;;;;;;5076780;28;20461;-70
2023/01/08 03:09:15;;;;;;;9.80;9.20;;;10.60;99.90;;;;;;5068206;28;20661;-71
2023/01/08 03:11:47;;;;;;;8.90;8.50;;;10.50;99.90;;;;;;5072079;28;20466;-70
2023/01/08 03:14:20;;;;;;;9.40;9.00;;;10.60;99.90;;;;;;5064669;28;20462;-70
2023/01/08 03:16:52;;;;;;;9.20;8.40;;;10.60;99.90;;;;;;5066345;28;20474;-70
2023/01/08 03:19:21;;;;;;;9.83;9.33;;;10.60;99.90;;;;;;5063287;28;20991;-73
2023/01/08 03:21:51;;;;;;;9.70;9.00;;;10.60;99.90;;;;;;5065686;28;21091;-69
2023/01/08 03:24:20;;;;;;;9.47;9.00;;;10.70;99.90;;;;;;5066761;28;20816;-72
2023/01/08 03:26:50;;;;;;;9.83;9.33;;;10.70;99.90;;;;;;5062161;28;20963;-70
2023/01/08 03:29:23;;;;;;;9.20;8.77;;;10.70;99.90;;;;;;5064422;28;20482;-71
2023/01/08 03:31:52;;;;;;;8.63;8.33;;;10.70;99.90;;;;;;5059586;28;20581;-72
2023/01/08 03:34:21;;;;;;;9.60;9.00;;;10.70;99.90;;;;;;5057232;28;20467;-70
2023/01/08 03:36:51;;;;;;;9.90;9.43;;;10.70;99.90;;;;;;5067121;28;20463;-70
2023/01/08 03:39:23;;;;;;;9.63;9.17;;;10.70;99.90;;;;;;5064488;28;20495;-70
2023/01/08 03:41:51;;;;;;;9.37;8.97;;;10.60;99.90;;;;;;5071268;28;20652;-73
2023/01/08 03:44:19;;;;;;;9.60;9.20;;;10.70;99.90;;;;;;5064260;28;20908;-73
2023/01/08 03:46:51;;;;;;;8.90;8.50;;;10.70;99.90;;;;;;5067428;28;20467;-71
2023/01/08 03:49:20;;;;;;;8.50;8.10;;;10.70;99.90;;;;;;5060993;28;20559;-71
2023/01/08 03:51:49;;;;;;;9.60;9.10;;;10.70;99.90;;;;;;5065472;28;20648;-70
2023/01/08 03:54:17;;;;;;;9.47;8.97;;;10.70;99.90;;;;;;5068122;28;20499;-72
2023/01/08 03:56:45;;;;;;;9.10;8.70;;;10.70;99.90;;;;;;5067011;28;20459;-74
2023/01/08 03:59:12;;;;;;;9.70;9.20;;;10.80;99.90;;;;;;5062226;28;20548;-72
2023/01/08 04:01:41;;;;;;;9.40;9.00;;;10.80;99.90;;;;;;5062799;28;20454;-72
2023/01/08 04:04:09;;;;;;;9.10;8.70;;;10.80;99.90;;;;;;5071507;28;20457;-72
2023/01/08 04:06:36;;;;;;;9.57;9.17;;;10.80;99.90;;;;;;5066566;28;20466;-71
2023/01/08 04:09:03;;;;;;;9.30;8.90;;;10.80;99.90;;;;;;5066057;28;20471;-72
2023/01/08 04:11:31;;;;;;;9.07;8.67;;;10.80;99.90;;;;;;5059929;28;20466;-70
2023/01/08 04:13:57;;;;;;;9.00;8.60;;;10.80;99.90;;;;;;5061304;28;20462;-71
2023/01/08 04:16:24;;;;;;;9.07;8.70;;;10.80;99.90;;;;;;5074301;28;20977;-72
2023/01/08 04:18:53;;;;;;;9.33;8.90;;;10.80;99.90;;;;;;5070507;28;20501;-70
2023/01/08 04:21:20;;;;;;;9.57;9.07;;;10.80;99.90;;;;;;5070844;28;20482;-70
2023/01/08 04:23:48;;;;;;;9.80;9.40;;;10.70;99.90;;;;;;5065406;28;20464;-70
2023/01/08 04:26:15;;;;;;;9.80;9.40;;;10.70;99.90;;;;;;5062401;28;21117;-70
2023/01/08 04:28:42;;;;;;;9.47;8.87;;;10.70;99.90;;;;;;5060698;28;20615;-70
2023/01/08 04:31:09;;;;;;;10.20;9.53;;;10.70;99.90;;;;;;5062712;28;20466;-70
2023/01/08 04:33:36;;;;;;;9.57;9.17;;;10.70;99.90;;;;;;5063972;28;20489;-71
2023/01/08 04:36:05;;;;;;;9.43;9.00;;;10.70;99.90;;;;;;5065184;28;21354;-71
2023/01/08 04:38:32;;;;;;;9.60;9.20;;;10.60;99.90;;;;;;5067413;28;20963;-70
2023/01/08 04:41:00;;;;;;;10.20;9.70;;;10.60;99.90;;;;;;5063547;28;20908;-70
2023/01/08 04:43:27;;;;;;;10.10;9.37;;;10.60;99.90;;;;;;5065463;28;20957;-70
2023/01/08 04:45:58;;;;;;;9.30;8.87;;;10.60;99.90;;;;;;5064937;28;20468;-70
2023/01/08 04:48:25;;;;;;;9.57;9.17;;;10.60;99.90;;;;;;5061251;28;20495;-70
2023/01/08 04:50:52;;;;;;;9.83;9.03;;;10.60;99.90;;;;;;5060319;28;20464;-70
2023/01/08 04:53:20;;;;;;;9.40;9.00;;;10.50;99.90;;;;;;5072691;28;21004;-70
2023/01/08 04:55:47;;;;;;;9.50;9.10;;;10.50;99.90;;;;;;5058992;28;20537;-70
2023/01/08 04:58:14;;;;;;;9.23;8.83;;;10.50;99.90;;;;;;5070026;28;20513;-69
2023/01/08 05:00:41;;;;;;;10.47;10.07;;;10.50;99.90;;;;;;5062947;28;20468;-70
2023/01/08 05:03:08;;;;;;;9.50;9.00;;;10.50;99.90;;;;;;5059358;28;20466;-70
2023/01/08 05:05:36;;;;;;;10.40;9.60;;;10.50;99.90;;;;;;5061278;28;20477;-69
2023/01/08 05:08:03;;;;;;;10.10;9.60;;;10.40;99.90;;;;;;5058848;28;20459;-68
2023/01/08 05:10:31;;;;;;;10.17;9.73;;;10.40;99.90;;;;;;5062534;28;20467;-71
2023/01/08 05:12:59;;;;;;;9.73;9.23;;;10.40;99.90;;;;;;5065789;28;20459;-72
2023/01/08 05:15:25;;;;;;;9.30;8.80;;;10.30;99.90;;;;;;5064624;28;20471;-72
2023/01/08 05:17:58;;;;;;;10.00;9.50;;;10.20;99.90;;;;;;5062431;28;20486;-70
2023/01/08 05:20:25;;;;;;;9.83;9.23;;;10.20;99.90;;;;;;5057174;28;20459;-71
2023/01/08 05:22:52;;;;;;;9.73;9.27;;;10.10;99.90;;;;;;5065411;28;20550;-73
2023/01/08 05:25:19;;;;;;;9.80;9.40;;;10.10;99.90;;;;;;5062529;28;20470;-70
2023/01/08 05:27:47;;;;;;;9.20;8.90;;;10.00;99.90;;;;;;5062464;28;20539;-70
2023/01/08 05:30:14;;;;;;;9.20;8.80;;;9.90;99.90;;;;;;5061310;28;20466;-69
2023/01/08 05:32:41;;;;;;;9.40;9.00;;;9.90;99.90;;;;;;5064865;28;20467;-72
2023/01/08 05:35:09;;;;;;;9.40;8.90;;;9.90;99.90;;;;;;5068688;28;20460;-70
2023/01/08 05:37:36;;;;;;;9.10;8.70;;;9.70;99.90;;;;;;5064072;28;20481;-71
2023/01/08 05:40:03;;;;;;;9.40;8.90;;;9.70;99.90;;;;;;5068839;28;20785;-73
2023/01/08 05:42:30;;;;;;;8.50;8.20;;;9.70;99.90;;;;;;5065737;28;20475;-69
2023/01/08 05:44:58;;;;;;;8.50;8.20;;;9.70;99.90;;;;;;5063520;28;20561;-72
2023/01/08 05:47:25;;;;;;;8.97;8.17;;;9.80;99.90;;;;;;5060055;28;20463;-71
2023/01/08 05:49:51;;;;;;;8.37;7.80;;;9.80;99.90;;;;;;5061024;28;20455;-70
2023/01/08 05:52:18;;;;;;;8.83;8.27;;;9.80;99.90;;;;;;5060083;28;21014;-71
2023/01/08 05:54:45;;;;;;;9.57;9.00;;;9.80;99.90;;;;;;5062720;28;20494;-72
2023/01/08 05:57:12;;;;;;;8.50;8.10;;;9.80;99.90;;;;;;5068098;28;20568;-69
2023/01/08 05:59:39;;;;;;;8.50;8.10;;;9.80;99.90;;;;;;5066237;28;20594;-72
2023/01/08 06:02:08;;;;;;;7.83;7.43;;;9.80;99.90;;;;;;5054509;28;20470;-71
2023/01/08 06:04:35;;;;;;;11.50;10.80;;;9.90;99.90;;;;;;5069795;28;21269;-68
2023/01/08 06:07:02;;;;;;;22.23;20.63;;;9.80;99.90;;;;;;5070754;28;20561;-70
2023/01/08 06:09:29;;;;;;;21.13;19.63;;;9.20;99.90;;;;;;5066223;28;20468;-71
2023/01/08 06:11:56;;;;;;;19.30;18.20;;;8.70;99.90;;;;;;5067231;28;20895;-69
2023/01/08 06:14:24;;;;;;;17.67;16.57;;;8.50;99.90;;;;;;5063834;28;21019;-69
2023/01/08 06:16:51;;;;;;;17.30;16.30;;;8.30;99.90;;;;;;5061608;28;20485;-71
2023/01/08 06:19:20;;;;;;;16.60;15.70;;;8.20;99.90;;;;;;5060087;28;20502;-70
2023/01/08 06:21:48;;;;;;;16.57;15.40;;;8.00;99.90;;;;;;5063466;28;20487;-71
2023/01/08 06:24:14;;;;;;;15.93;15.03;;;8.00;99.90;;;;;;5068750;28;20462;-70
2023/01/08 06:26:41;;;;;;;15.60;14.53;;;8.00;99.90;;;;;;5062697;28;20490;-71
2023/01/08 06:29:08;;;;;;;15.80;14.90;;;7.90;99.90;;;;;;5068710;28;20470;-72
2023/01/08 06:31:35;;;;;;;15.87;14.90;;;7.90;99.90;;;;;;5069414;28;20458;-71
2023/01/08 06:34:02;;;;;;;14.80;13.87;;;7.90;99.90;;;;;;5064615;28;20459;-71
2023/01/08 06:36:30;;;;;;;14.70;13.80;;;7.90;99.90;;;;;;5060886;28;20472;-71
2023/01/08 06:38:57;;;;;;;14.07;13.27;;;7.90;99.90;;;;;;5061592;28;20490;-71
2023/01/08 06:41:24;;;;;;;15.40;14.00;;;7.80;99.90;;;;;;5062026;28;20895;-71
2023/01/08 06:43:51;;;;;;;13.97;13.17;;;7.80;99.90;;;;;;5065304;28;21083;-71
2023/01/08 06:46:18;;;;;;;13.80;13.00;;;7.80;99.90;;;;;;5065358;28;20853;-71
2023/01/08 06:48:46;;;;;;;14.20;13.20;;;7.80;99.90;;;;;;5070350;28;20473;-71
2023/01/08 06:51:12;;;;;;;13.13;12.13;;;7.80;99.90;;;;;;5061017;28;20474;-71
2023/01/08 06:53:41;;;;;;;12.80;11.90;;;7.80;99.90;;;;;;5062339;28;20460;-71
2023/01/08 06:56:09;;;;;;;13.27;12.47;;;7.80;99.90;;;;;;5067119;28;20642;-71
2023/01/08 06:58:37;;;;;;;14.17;12.80;;;7.80;99.90;;;;;;5060513;28;20579;-71
2023/01/08 07:01:04;;;;;;;13.30;12.50;;;7.80;99.90;;;;;;5059399;28;20490;-71
2023/01/08 07:03:31;;;;;;;12.30;11.50;;;7.70;99.90;;;;;;5066671;28;20491;-70
2023/01/08 07:05:58;;;;;;;12.60;11.50;;;7.70;99.90;;;;;;5069601;28;20469;-70
2023/01/08 07:08:25;;;;;;;11.37;10.73;;;7.70;99.90;;;;;;5066946;28;20880;-70
2023/01/08 07:10:53;;;;;;;12.00;11.20;;;7.60;99.90;;;;;;5061540;28;20891;-70
2023/01/08 07:13:21;;;;;;;12.20;11.50;;;7.60;99.90;;;;;;5071005;28;20466;-73
2023/01/08 07:15:48;;;;;;;11.80;11.20;;;7.60;99.90;;;;;;5069453;28;20491;-73
2023/01/08 07:18:14;;;;;;;12.87;11.70;;;7.60;99.90;;;;;;5071966;28;20493;-70
2023/01/08 07:20:41;;;;;;;12.00;11.30;;;7.70;99.90;;;;;;5059696;28;20525;-70
2023/01/08 07:23:11;;;;;;;12.50;11.80;;;7.60;99.90;;;;;;5063721;28;20511;-70
2023/01/08 07:25:38;;;;;;;11.57;10.87;;;7.60;99.90;;;;;;5063842;28;21024;-70
2023/01/08 07:28:06;;;;;;;11.60;10.97;;;7.70;99.90;;;;;;5067591;28;20729;-71
2023/01/08 07:30:33;;;;;;;12.13;11.20;;;7.60;99.90;;;;;;5075169;28;20856;-70
2023/01/08 07:33:00;;;;;;;11.13;10.50;;;7.60;99.90;;;;;;5066894;28;20555;-70
2023/01/08 07:35:27;;;;;;;11.90;10.90;;;7.60;99.90;;;;;;5062010;28;20463;-70
2023/01/08 07:37:54;;;;;;;11.60;10.93;;;7.70;99.90;;;;;;5063742;28;20459;-70
2023/01/08 07:40:22;;;;;;;11.40;10.87;;;7.70;99.90;;;;;;5067644;28;20498;-71
2023/01/08 07:42:58;;;;;;;13.87;12.57;;;7.70;99.90;;;;;;5062338;28;20455;-70
2023/01/08 07:45:27;;;;;;;12.00;11.40;;;7.70;99.90;;;;;;5067140;28;20995;-70
2023/01/08 07:47:54;;;;;;;13.30;12.17;;;7.70;99.90;;;;;;5057506;28;20488;-71
2023/01/08 07:50:20;;;;;;;12.60;11.60;;;7.60;99.90;;;;;;5066622;28;20931;-70
2023/01/08 07:52:48;;;;;;;12.57;11.73;;;7.50;99.90;;;;;;5057005;28;20467;-70
2023/01/08 07:55:15;;;;;;;12.73;11.83;;;7.50;99.90;;;;;;5059163;28;20470;-70
2023/01/08 07:57:42;;;;;;;13.13;12.27;;;7.50;99.90;;;;;;5072986;28;20466;-71
2023/01/08 08:00:10;;;;;;;13.37;12.47;;;7.40;99.90;;;;;;5064790;28;20506;-70
2023/01/08 08:02:39;;;;;;;13.40;12.60;;;7.40;99.90;;;;;;5066503;28;20720;-70
2023/01/08 08:05:06;;;;;;;14.27;13.43;;;7.40;99.90;;;;;;5058260;28;20486;-70
2023/01/08 08:07:34;;;;;;;12.83;12.13;;;7.30;99.90;;;;;;5063824;28;20463;-70
2023/01/08 08:10:02;;;;;;;13.40;12.47;;;7.30;99.90;;;;;;5067373;28;20959;-70
2023/01/08 08:12:28;;;;;;;12.60;11.70;;;7.30;99.90;;;;;;5065702;28;20571;-70
2023/01/08 08:14:55;;;;;;;15.00;13.63;;;7.30;99.90;;;;;;5063816;28;20467;-70
2023/01/08 08:17:22;;;;;;;14.13;12.93;;;7.30;99.90;;;;;;5065640;28;20824;-70
2023/01/08 08:19:50;;;;;;;14.33;13.43;;;7.30;99.90;;;;;;5066154;28;20482;-70
2023/01/08 08:22:18;;;;;;;15.43;13.90;;;7.30;99.90;;;;;;5063329;28;20461;-70
2023/01/08 08:24:44;;;;;;;18.73;12.63;;;7.30;99.90;;;;;;5064441;28;20548;-70
2023/01/08 08:27:12;;;;;;;12.57;11.77;;;7.20;99.90;;;;;;5065951;28;20468;-69
2023/01/08 08:29:40;;;;;;;13.30;12.40;;;7.20;99.90;;;;;;5062638;28;20458;-70
2023/01/08 08:32:06;;;;;;;14.07;12.67;;;7.20;99.90;;;;;;5064577;28;20783;-70
2023/01/08 08:34:34;;;;;;;14.30;12.60;;;7.20;99.90;;;;;;5066465;28;20991;-70
2023/01/08 08:37:02;;;;;;;14.53;12.23;;;7.30;99.90;;;;;;5060887;28;20463;-70
2023/01/08 08:39:28;;;;;;;13.07;12.17;;;7.30;99.90;;;;;;5060050;28;20501;-70
2023/01/08 08:41:55;;;;;;;13.60;12.13;;;7.30;99.90;;;;;;5064555;28;20840;-70
2023/01/08 08:44:22;;;;;;;12.27;11.07;;;7.40;99.90;;;;;;5064756;28;20965;-70
2023/01/08 08:46:48;;;;;;;14.30;11.93;;;7.40;99.90;;;;;;5057807;28;21186;-70
2023/01/08 08:49:15;;;;;;;11.90;10.90;;;7.40;99.90;;;;;;5072336;28;20515;-70
2023/01/08 08:51:44;;;;;;;11.67;10.90;;;7.40;99.90;;;;;;5065259;28;20473;-70
2023/01/08 08:54:12;;;;;;;13.07;11.73;;;7.50;99.90;;;;;;5059781;28;21017;-70
2023/01/08 08:56:38;;;;;;;16.27;12.20;;;7.50;99.90;;;;;;5059860;28;20762;-70
2023/01/08 08:59:05;;;;;;;11.67;10.50;;;7.50;99.90;;;;;;5058845;28;20502;-70
2023/01/08 09:01:32;;;;;;;11.67;10.23;;;7.60;99.90;;;;;;5057269;28;20470;-69
2023/01/08 09:03:59;;;;;;;10.30;9.60;;;7.70;99.90;;;;;;5064024;28;20460;-70
2023/01/08 09:06:26;;;;;;;10.60;9.60;;;7.70;99.90;;;;;;5062202;28;20467;-70
2023/01/08 09:08:54;;;;;;;9.47;8.80;;;7.80;99.90;;;;;;5058951;28;20900;-70
2023/01/08 09:11:23;;;;;;;14.40;9.80;;;7.90;99.90;;;;;;5062497;28;20568;-70
2023/01/08 09:13:49;;;;;;;10.43;8.97;;;8.00;99.90;;;;;;5044690;28;20959;-69
2023/01/08 09:16:17;;;;;;;8.60;7.77;;;8.00;99.90;;;;;;5054688;28;20643;-70
2023/01/08 09:18:44;;;;;;;10.70;8.43;;;8.10;99.90;;;;;;5062263;28;20494;-70
2023/01/08 09:21:11;;;;;;;8.30;7.77;;;8.20;99.90;;;;;;5058592;28;20524;-70
2023/01/08 09:23:38;;;;;;;9.10;7.93;;;8.20;99.90;;;;;;5061277;28;20493;-72
2023/01/08 09:26:06;;;;;;;8.40;7.73;;;8.40;99.90;;;;;;5064460;28;20553;-72
2023/01/08 09:28:34;;;;;;;9.17;8.30;;;8.50;99.90;;;;;;5054610;28;20463;-70
2023/01/08 09:31:02;;;;;;;13.00;8.23;;;8.60;99.90;;;;;;5064643;28;21043;-69
2023/01/08 09:33:29;;;;;;;7.37;6.73;;;8.90;99.90;;;;;;5069578;28;20553;-70
2023/01/08 09:35:56;;;;;;;7.97;7.30;;;9.10;99.90;;;;;;5069913;28;20462;-70
2023/01/08 09:38:23;;;;;;;7.77;7.13;;;9.20;99.90;;;;;;5059803;28;20791;-70
2023/01/08 09:40:54;;;;;;;7.80;7.07;;;9.40;99.90;;;;;;5069352;28;20583;-69
2023/01/08 09:43:23;;;;;;;7.70;6.97;;;9.60;99.90;;;;;;5060717;28;20462;-72
2023/01/08 09:45:55;;;;;;;7.50;7.00;;;9.70;99.90;;;;;;5075998;28;20458;-72
2023/01/08 09:48:26;;;;;;;8.27;7.77;;;9.80;99.90;;;;;;5068836;28;20490;-69
2023/01/08 09:50:53;;;;;;;10.47;7.70;;;9.90;99.90;;;;;;5076126;28;20464;-72
2023/01/08 09:53:20;;;;;;;8.53;8.03;;;10.00;99.90;;;;;;5070171;28;20870;-70
2023/01/08 09:55:54;;;;;;;9.87;8.97;;;10.10;99.90;;;;;;5068618;28;20857;-70
2023/01/08 09:58:27;;;;;;;9.47;8.70;;;10.10;99.90;;;;;;5074178;28;20941;-69
2023/01/08 10:00:57;;;;;;;11.80;9.10;;;10.20;99.90;;;;;;5074684;28;20494;-70
2023/01/08 10:03:28;;;;;;;8.90;8.50;;;10.10;99.90;;;;;;5066031;28;20463;-70
2023/01/08 10:05:56;;;;;;;10.20;9.30;;;10.20;99.90;;;;;;5069682;28;20465;-70
2023/01/08 10:08:23;;;;;;;10.03;9.23;;;10.40;99.90;;;;;;5072117;28;21184;-70
2023/01/08 10:10:50;;;;;;;10.70;9.90;;;10.50;99.90;;;;;;5077279;28;20458;-72
2023/01/08 10:13:16;;;;;;;10.70;10.07;;;10.70;99.90;;;;;;5060197;28;20466;-73
2023/01/08 10:15:43;;;;;;;10.80;10.07;;;10.90;99.90;;;;;;5071328;28;20465;-72
2023/01/08 10:18:14;;;;;;;12.97;11.50;;;10.90;99.90;;;;;;5073813;28;20958;-70
2023/01/08 10:20:40;;;;;;;11.70;10.90;;;11.00;99.90;;;;;;5069891;28;20470;-70
2023/01/08 10:23:13;;;;;;;11.80;11.00;;;11.00;99.90;;;;;;5062468;28;20471;-70
2023/01/08 10:25:51;;;;;;;12.50;11.30;;;11.00;99.90;;;;;;5071267;28;20548;-69
2023/01/08 10:28:21;;;;;;;10.30;9.80;;;10.90;99.90;;;;;;5072290;28;20930;-71
2023/01/08 10:30:50;;;;;;;11.57;10.87;;;11.00;99.90;;;;;;5067163;28;20462;-70
2023/01/08 10:33:24;;;;;;;11.17;10.47;;;10.90;99.90;;;;;;5064806;28;20455;-70
2023/01/08 10:36:00;;;;;;;10.87;10.33;;;11.00;99.90;;;;;;5075265;28;20471;-70
2023/01/08 10:38:31;;;;;;;12.37;11.30;;;11.00;99.90;;;;;;5073880;28;20467;-69
2023/01/08 10:41:00;;;;;;;11.20;10.50;;;11.10;99.90;;;;;;5072760;28;20494;-70
2023/01/08 10:43:30;;;;;;;14.47;11.83;;;11.00;99.90;;;;;;5069054;28;20466;-73
2023/01/08 10:45:59;;;;;;;11.67;10.97;;;11.10;99.90;;;;;;5070500;28;20920;-73
2023/01/08 10:48:33;;;;;;;11.50;10.80;;;11.10;99.90;;;;;;5074069;28;20552;-72
2023/01/08 10:51:12;;;;;;;11.63;10.80;;;11.10;99.90;;;;;;5070902;28;20463;-69
2023/01/08 10:53:40;;;;;;;13.33;11.07;;;11.20;99.90;;;;;;5071169;28;20463;-70
2023/01/08 10:56:21;;;;;;;11.67;11.00;;;11.10;99.90;;;;;;5070632;28;20552;-71
2023/01/08 10:58:49;;;;;;;11.83;11.00;;;11.30;99.90;;;;;;5070142;28;20462;-69
2023/01/08 11:01:20;;;;;;;11.00;10.30;;;11.40;99.90;;;;;;5072938;28;20848;-71
2023/01/08 11:03:51;;;;;;;12.07;11.17;;;11.40;99.90;;;;;;5065325;28;20475;-72
2023/01/08 11:06:22;;;;;;;11.77;11.17;;;11.50;99.90;;;;;;5075544;28;20536;-70
2023/01/08 11:08:51;;;;;;;12.10;11.30;;;11.60;99.90;;;;;;5070722;28;20547;-72
2023/01/08 11:11:19;;;;;;;12.40;11.60;;;11.50;99.90;;;;;;5071186;28;20459;-71
2023/01/08 11:13:56;;;;;;;11.83;11.23;;;11.60;99.90;;;;;;5071303;28;21066;-73
2023/01/08 11:16:30;;;;;;;12.13;11.53;;;11.70;99.90;;;;;;5068289;28;20461;-70
2023/01/08 11:18:58;;;;;;;12.30;11.50;;;11.70;99.90;;;;;;5075017;28;20466;-70
2023/01/08 11:21:26;;;;;;;12.27;11.67;;;11.70;99.90;;;;;;5076725;28;20461;-71
2023/01/08 11:24:14;;;;;;;13.50;12.70;;;11.60;99.90;;;;;;5070828;28;20554;-70
2023/01/08 11:26:45;;;;;;;14.17;13.07;;;11.50;99.90;;;;;;5072528;28;20893;-71
2023/01/08 11:29:15;;;;;;;22.63;21.07;;;11.20;99.90;;;;;;5068218;28;20474;-69
2023/01/08 11:31:47;;;;;;;22.77;20.97;;;10.60;99.90;;;;;;5069557;28;20470;-72
2023/01/08 11:34:20;;;;;;;19.27;17.80;;;9.40;99.90;;;;;;5068636;28;20466;-72
2023/01/08 11:36:50;;;;;;;18.13;16.87;;;8.70;99.90;;;;;;5061768;28;20480;-72
2023/01/08 11:39:19;;;;;;;15.43;14.23;;;8.40;99.90;;;;;;5066300;28;20489;-73
2023/01/08 11:42:03;;;;;;;15.00;14.10;;;8.50;99.90;;;;;;5072830;28;21255;-73
2023/01/08 11:44:40;;;;;;;15.23;14.30;;;8.50;99.90;;;;;;5076191;28;20793;-72
2023/01/08 11:47:16;;;;;;;13.87;13.17;;;8.60;99.90;;;;;;5076606;28;20836;-71
2023/01/08 11:49:58;;;;;;;13.90;13.10;;;8.60;99.90;;;;;;5071791;28;20466;-71
2023/01/08 11:52:43;;;;;;;13.50;12.80;;;8.50;99.90;;;;;;5066949;28;20469;-70
2023/01/08 11:55:36;;;;;;;12.23;11.53;;;8.60;99.90;;;;;;5070527;28;20465;-71
2023/01/08 11:58:16;;;;;;;11.70;11.20;;;9.10;99.90;;;;;;5068289;28;20520;-71
2023/01/08 12:00:57;;;;;;;11.30;10.40;;;9.30;99.90;;;;;;5064130;28;20945;-72
2023/01/08 12:03:31;;;;;;;10.17;9.67;;;9.70;99.90;;;;;;5075462;28;20465;-72
2023/01/08 12:06:11;;;;;;;10.43;9.50;;;10.00;99.90;;;;;;5072308;28;20467;-71
2023/01/08 12:08:48;;;;;;;10.77;10.07;;;10.40;99.90;;;;;;5069330;28;20858;-70
2023/01/08 12:11:23;;;;;;;10.30;9.80;;;10.70;99.90;;;;;;5070994;28;20461;-72
2023/01/08 12:14:06;;;;;;;10.20;9.40;;;11.10;99.90;;;;;;5066052;28;21015;-72
2023/01/08 12:16:53;;;;;;;9.57;9.20;;;11.30;99.90;;;;;;5060242;28;20766;-70
2023/01/08 12:19:36;;;;;;;10.83;10.33;;;11.40;99.90;;;;;;5062952;28;21026;-71
2023/01/08 12:22:27;;;;;;;11.90;11.17;;;11.40;99.90;;;;;;5068323;28;20463;-72
2023/01/08 12:25:16;;;;;;;12.77;12.07;;;11.60;99.90;;;;;;5062516;28;20494;-71
2023/01/08 12:27:54;;;;;;;13.90;13.20;;;11.70;99.90;;;;;;5057274;28;20467;-71
2023/01/08 12:30:32;;;;;;;13.30;12.60;;;11.50;99.90;;;;;;5072263;28;20450;-73
2023/01/08 12:33:02;;;;;;;12.70;12.10;;;11.60;99.90;;;;;;5075743;28;20463;-71
2023/01/08 12:35:33;;;;;;;11.83;11.23;;;11.40;99.90;;;;;;5069901;28;20459;-70
2023/01/08 12:38:06;;;;;;;12.27;11.77;;;11.40;99.90;;;;;;5067089;28;20467;-72
2023/01/08 12:40:38;;;;;;;13.30;12.70;;;11.50;99.90;;;;;;5066210;28;20486;-73
2023/01/08 12:43:12;;;;;;;13.00;12.30;;;11.50;99.90;;;;;;5072324;28;20948;-72
2023/01/08 12:45:43;;;;;;;13.43;12.73;;;11.50;99.90;;;;;;5066392;28;20458;-72
2023/01/08 12:48:15;;;;;;;12.27;11.77;;;11.50;99.90;;;;;;5067487;28;20823;-72
2023/01/08 12:50:53;;;;;;;12.90;12.10;;;12.10;99.90;;;;;;5068910;28;20501;-71
2023/01/08 12:53:31;;;;;;;13.03;12.13;;;12.30;99.90;;;;;;5070764;28;20809;-70